Time;durP1;ratioP1;P1;durP2;ratioP2;P2;SDS_P1;SDS_P2;PMS_P1;PMS_P2;Temp;Humidity;BMP_temperature;BMP_pressure;BME280_temperature;BME280_humidity;BME280_pressure;Samples;Min_cycle;Max_cycle;Signal;HPM_P1;HPM_P2
2024/01/27 00:00:08;;;;;;;9.82;9.43;;;;;;;;;;5023712;28;20029;-62
2024/01/27 00:02:33;;;;;;;9.70;9.30;;;;;;;;;;5025323;28;20029;-63
2024/01/27 00:04:59;;;;;;;10.10;9.60;;;;;;;;;;5031468;28;20029;-61
2024/01/27 00:07:27;;;;;;;10.20;9.70;;;;;;;;;;5028593;28;20021;-61
2024/01/27 00:09:52;;;;;;;10.30;9.80;;;;;;;;;;5021081;28;20079;-62
2024/01/27 00:12:18;;;;;;;9.82;9.43;;;;;;;;;;5023427;28;20029;-62
2024/01/27 00:14:44;;;;;;;10.05;9.60;;;;;;;;;;5029707;28;20018;-62
2024/01/27 00:17:09;;;;;;;10.73;10.23;;;;;;;;;;5028362;28;20036;-62
2024/01/27 00:19:35;;;;;;;10.15;9.65;;;;;;;;;;5028771;28;20021;-62
2024/01/27 00:22:00;;;;;;;10.23;9.73;;;;;;;;;;5025266;28;20502;-62
2024/01/27 00:24:25;;;;;;;9.80;9.40;;;;;;;;;;5035722;28;20523;-62
2024/01/27 00:26:51;;;;;;;10.20;9.70;;;;;;;;;;5030607;28;20049;-62
2024/01/27 00:29:16;;;;;;;10.02;9.57;;;;;;;;;;5028566;28;20021;-62
2024/01/27 00:31:41;;;;;;;9.88;9.38;;;;;;;;;;5028364;28;20029;-62
2024/01/27 00:34:07;;;;;;;9.93;9.43;;;;;;;;;;5027803;28;20029;-61
2024/01/27 00:36:32;;;;;;;9.63;9.23;;;;;;;;;;5031912;28;20033;-62
2024/01/27 00:38:57;;;;;;;9.40;9.00;;;;;;;;;;5030662;28;20030;-61
2024/01/27 00:41:23;;;;;;;9.60;9.20;;;;;;;;;;5030868;28;20018;-62
2024/01/27 00:43:48;;;;;;;10.50;10.00;;;;;;;;;;5024976;28;20022;-61
2024/01/27 00:46:13;;;;;;;10.18;9.68;;;;;;;;;;5028784;28;20018;-61
2024/01/27 00:48:39;;;;;;;9.80;9.38;;;;;;;;;;5028814;28;20116;-61
2024/01/27 00:51:05;;;;;;;9.48;9.07;;;;;;;;;;5029791;28;20160;-61
2024/01/27 00:53:30;;;;;;;9.45;9.05;;;;;;;;;;5029594;28;20041;-60
2024/01/27 00:55:55;;;;;;;10.15;9.65;;;;;;;;;;5028673;28;20097;-61
2024/01/27 00:58:21;;;;;;;10.43;9.93;;;;;;;;;;5026211;28;20079;-60
2024/01/27 01:00:46;;;;;;;10.00;9.50;;;;;;;;;;5025067;28;20535;-61
2024/01/27 01:03:11;;;;;;;9.82;9.43;;;;;;;;;;5024729;28;20018;-61
2024/01/27 01:05:37;;;;;;;9.75;9.30;;;;;;;;;;5028185;28;20120;-61
2024/01/27 01:08:03;;;;;;;9.48;9.07;;;;;;;;;;5028489;28;20483;-61
2024/01/27 01:10:29;;;;;;;9.80;9.40;;;;;;;;;;5027778;28;20534;-61
2024/01/27 01:12:54;;;;;;;9.98;9.48;;;;;;;;;;5023480;28;20075;-61
2024/01/27 01:15:20;;;;;;;9.60;9.20;;;;;;;;;;5024103;28;20029;-60
2024/01/27 01:17:45;;;;;;;9.77;9.30;;;;;;;;;;5022964;28;20112;-61
2024/01/27 01:20:11;;;;;;;9.30;8.90;;;;;;;;;;5024309;28;20029;-61
2024/01/27 01:22:36;;;;;;;10.13;9.63;;;;;;;;;;5025561;28;20049;-61
2024/01/27 01:25:02;;;;;;;10.13;9.63;;;;;;;;;;5029304;28;20488;-61
2024/01/27 01:27:27;;;;;;;9.30;8.90;;;;;;;;;;5031908;28;20048;-61
2024/01/27 01:29:52;;;;;;;9.75;9.27;;;;;;;;;;5030354;28;20075;-61
2024/01/27 01:32:18;;;;;;;9.50;9.10;;;;;;;;;;5032212;28;20063;-61
2024/01/27 01:34:43;;;;;;;9.93;9.43;;;;;;;;;;5031204;28;20045;-61
2024/01/27 01:37:08;;;;;;;9.45;9.05;;;;;;;;;;5031880;28;20052;-61
2024/01/27 01:39:34;;;;;;;9.50;9.10;;;;;;;;;;5033835;28;20041;-62
2024/01/27 01:41:59;;;;;;;9.43;9.02;;;;;;;;;;5034237;28;20104;-61
2024/01/27 01:44:29;;;;;;;9.50;9.10;;;;;;;;;;5032632;28;20021;-61
2024/01/27 01:46:54;;;;;;;9.57;9.18;;;;;;;;;;5032317;28;20483;-61
2024/01/27 01:49:20;;;;;;;9.90;9.40;;;;;;;;;;5032391;28;20151;-61
2024/01/27 01:51:45;;;;;;;9.68;9.27;;;;;;;;;;5033178;28;20028;-61
2024/01/27 01:54:11;;;;;;;9.50;9.10;;;;;;;;;;5032217;28;20025;-62
2024/01/27 01:56:36;;;;;;;10.10;9.60;;;;;;;;;;5032556;28;20022;-61
2024/01/27 01:59:02;;;;;;;9.52;9.13;;;;;;;;;;5033028;28;20026;-61
2024/01/27 02:01:27;;;;;;;11.13;10.52;;;;;;;;;;5033056;28;20031;-61
2024/01/27 02:03:53;;;;;;;9.80;9.30;;;;;;;;;;5029348;28;20017;-61
2024/01/27 02:06:19;;;;;;;10.38;9.88;;;;;;;;;;5036261;28;20026;-60
2024/01/27 02:08:44;;;;;;;9.95;9.45;;;;;;;;;;5025541;28;20037;-61
2024/01/27 02:11:09;;;;;;;9.57;9.18;;;;;;;;;;5030026;28;20021;-61
2024/01/27 02:13:35;;;;;;;9.60;9.20;;;;;;;;;;5030532;28;20026;-61
2024/01/27 02:16:00;;;;;;;10.15;9.65;;;;;;;;;;5032455;28;20083;-62
2024/01/27 02:18:25;;;;;;;9.73;9.30;;;;;;;;;;5027000;28;20071;-61
2024/01/27 02:20:51;;;;;;;10.27;9.77;;;;;;;;;;5032292;28;20108;-61
2024/01/27 02:23:16;;;;;;;9.75;9.32;;;;;;;;;;5027851;28;20361;-61
2024/01/27 02:25:41;;;;;;;9.75;9.32;;;;;;;;;;5028447;28;20030;-63
2024/01/27 02:28:07;;;;;;;10.32;9.82;;;;;;;;;;5032744;28;20053;-62
2024/01/27 02:30:33;;;;;;;9.90;9.40;;;;;;;;;;5029049;28;20025;-62
2024/01/27 02:32:58;;;;;;;9.50;9.10;;;;;;;;;;5032622;28;20037;-62
2024/01/27 02:35:25;;;;;;;9.55;9.15;;;;;;;;;;5035342;28;20028;-61
2024/01/27 02:37:51;;;;;;;10.07;9.57;;;;;;;;;;5029325;28;20032;-61
2024/01/27 02:40:16;;;;;;;10.20;9.70;;;;;;;;;;5031673;28;20017;-61
2024/01/27 02:42:43;;;;;;;9.57;9.18;;;;;;;;;;5035594;28;20032;-62
2024/01/27 02:45:08;;;;;;;9.27;8.88;;;;;;;;;;5032474;28;20291;-62
2024/01/27 02:47:34;;;;;;;9.93;9.43;;;;;;;;;;5028936;28;20092;-60
2024/01/27 02:49:59;;;;;;;9.60;9.20;;;;;;;;;;5032734;28;20084;-62
2024/01/27 02:52:25;;;;;;;10.00;9.50;;;;;;;;;;5025400;28;20546;-60
2024/01/27 02:54:50;;;;;;;9.90;9.40;;;;;;;;;;5020325;28;20029;-60
2024/01/27 02:57:16;;;;;;;9.60;9.20;;;;;;;;;;5027126;28;20041;-61
2024/01/27 02:59:44;;;;;;;10.30;9.80;;;;;;;;;;5041769;28;20702;-61
2024/01/27 03:02:10;;;;;;;9.40;9.00;;;;;;;;;;5022998;28;20034;-61
2024/01/27 03:04:35;;;;;;;9.80;9.30;;;;;;;;;;5031993;28;20522;-62
2024/01/27 03:07:01;;;;;;;10.10;9.60;;;;;;;;;;5029053;28;20022;-62
2024/01/27 03:09:26;;;;;;;9.50;9.10;;;;;;;;;;5027247;28;20024;-62
2024/01/27 03:11:51;;;;;;;9.63;9.23;;;;;;;;;;5028786;28;20088;-61
2024/01/27 03:14:17;;;;;;;9.40;9.00;;;;;;;;;;5027309;28;20033;-61
2024/01/27 03:16:43;;;;;;;9.73;9.23;;;;;;;;;;5030015;28;20075;-61
2024/01/27 03:19:09;;;;;;;10.13;9.63;;;;;;;;;;5025152;28;20030;-61
2024/01/27 03:21:34;;;;;;;9.60;9.20;;;;;;;;;;5030844;28;20056;-61
2024/01/27 03:23:59;;;;;;;9.30;8.90;;;;;;;;;;5037163;28;20061;-61
2024/01/27 03:26:25;;;;;;;9.50;9.10;;;;;;;;;;5026351;28;20445;-61
2024/01/27 03:28:50;;;;;;;9.75;9.30;;;;;;;;;;5030692;28;20028;-61
2024/01/27 03:31:15;;;;;;;10.15;9.65;;;;;;;;;;5034141;28;20020;-61
2024/01/27 03:33:41;;;;;;;9.70;9.30;;;;;;;;;;5027999;28;20025;-61
2024/01/27 03:36:10;;;;;;;9.55;9.15;;;;;;;;;;5032385;28;20014;-61
2024/01/27 03:38:37;;;;;;;9.82;9.32;;;;;;;;;;5025450;28;20495;-61
2024/01/27 03:41:02;;;;;;;10.20;9.70;;;;;;;;;;5028610;28;20032;-60
2024/01/27 03:43:28;;;;;;;10.00;9.50;;;;;;;;;;5027940;28;20098;-61
2024/01/27 03:45:53;;;;;;;9.30;8.90;;;;;;;;;;5030649;28;20087;-61
2024/01/27 03:48:18;;;;;;;9.80;9.30;;;;;;;;;;5033628;28;20482;-60
2024/01/27 03:50:44;;;;;;;9.57;9.18;;;;;;;;;;5032176;28;20472;-62
2024/01/27 03:53:09;;;;;;;9.43;9.02;;;;;;;;;;5027920;28;20091;-60
2024/01/27 03:55:35;;;;;;;9.48;9.07;;;;;;;;;;5030021;28;20021;-60
2024/01/27 03:58:00;;;;;;;9.80;9.40;;;;;;;;;;5025412;28;20022;-60
2024/01/27 04:00:27;;;;;;;9.60;9.20;;;;;;;;;;5031907;28;20043;-60
2024/01/27 04:02:52;;;;;;;10.10;9.60;;;;;;;;;;5032039;28;20483;-60
2024/01/27 04:05:17;;;;;;;11.13;10.52;;;;;;;;;;5029617;28;20107;-60
2024/01/27 04:07:43;;;;;;;10.05;9.55;;;;;;;;;;5024235;28;20025;-61
2024/01/27 04:10:08;;;;;;;9.70;9.30;;;;;;;;;;5037441;28;20048;-61
2024/01/27 04:12:34;;;;;;;10.30;9.80;;;;;;;;;;5023010;28;20044;-61
2024/01/27 04:14:59;;;;;;;10.80;10.20;;;;;;;;;;5028065;28;20040;-61
2024/01/27 04:17:25;;;;;;;10.10;9.60;;;;;;;;;;5025629;28;20030;-61
2024/01/27 04:19:50;;;;;;;10.40;9.90;;;;;;;;;;5030618;28;20022;-61
2024/01/27 04:22:16;;;;;;;9.88;9.38;;;;;;;;;;5028773;28;20028;-61
2024/01/27 04:24:41;;;;;;;9.30;8.90;;;;;;;;;;5029823;28;20365;-60
2024/01/27 04:27:06;;;;;;;9.65;9.25;;;;;;;;;;5030627;28;20036;-60
2024/01/27 04:29:32;;;;;;;10.07;9.57;;;;;;;;;;5030817;28;20026;-60
2024/01/27 04:31:57;;;;;;;10.30;9.80;;;;;;;;;;5029269;28;20028;-62
2024/01/27 04:34:22;;;;;;;9.98;9.48;;;;;;;;;;5031847;28;20025;-62
2024/01/27 04:36:48;;;;;;;9.90;9.40;;;;;;;;;;5030693;28;20029;-62
2024/01/27 04:39:13;;;;;;;10.07;9.57;;;;;;;;;;5025697;28;20053;-63
2024/01/27 04:41:42;;;;;;;9.77;9.27;;;;;;;;;;5028787;28;20065;-61
2024/01/27 04:44:08;;;;;;;9.73;9.30;;;;;;;;;;5025429;28;20485;-61
2024/01/27 04:46:33;;;;;;;10.13;9.63;;;;;;;;;;5029847;28;20052;-60
2024/01/27 04:48:59;;;;;;;10.27;9.77;;;;;;;;;;5023234;28;20025;-61
2024/01/27 04:51:24;;;;;;;9.75;9.32;;;;;;;;;;5026117;28;20073;-61
2024/01/27 04:53:50;;;;;;;9.60;9.20;;;;;;;;;;5030644;28;20538;-61
2024/01/27 04:56:15;;;;;;;9.52;9.13;;;;;;;;;;5026653;28;20396;-61
2024/01/27 04:58:40;;;;;;;10.27;9.77;;;;;;;;;;5030346;28;20032;-61
2024/01/27 05:01:06;;;;;;;9.75;9.25;;;;;;;;;;5033075;28;20033;-61
2024/01/27 05:03:32;;;;;;;9.32;8.93;;;;;;;;;;5030418;28;20362;-61
2024/01/27 05:05:57;;;;;;;9.68;9.20;;;;;;;;;;5026041;28;20018;-61
2024/01/27 05:08:23;;;;;;;9.63;9.23;;;;;;;;;;5034943;28;20014;-61
2024/01/27 05:10:48;;;;;;;9.75;9.25;;;;;;;;;;5031185;28;20021;-61
2024/01/27 05:13:13;;;;;;;9.80;9.30;;;;;;;;;;5042938;28;20075;-61
2024/01/27 05:15:38;;;;;;;9.68;9.18;;;;;;;;;;5032837;28;20025;-60
2024/01/27 05:18:04;;;;;;;9.20;8.80;;;;;;;;;;5035170;28;20475;-60
2024/01/27 05:20:29;;;;;;;9.32;8.93;;;;;;;;;;5023104;28;20424;-61
2024/01/27 05:22:55;;;;;;;9.80;9.30;;;;;;;;;;5028518;28;20022;-60
2024/01/27 05:25:20;;;;;;;10.18;9.68;;;;;;;;;;5031602;28;20017;-61
2024/01/27 05:27:45;;;;;;;9.68;9.27;;;;;;;;;;5034315;28;20097;-61
2024/01/27 05:30:11;;;;;;;9.90;9.40;;;;;;;;;;5033761;28;20364;-59
2024/01/27 05:32:36;;;;;;;10.15;9.65;;;;;;;;;;5028603;28;20562;-62
2024/01/27 05:35:03;;;;;;;10.30;9.80;;;;;;;;;;5026187;28;20505;-62
2024/01/27 05:37:28;;;;;;;9.85;9.40;;;;;;;;;;5032775;28;20033;-62
2024/01/27 05:39:54;;;;;;;9.95;9.45;;;;;;;;;;5032035;28;20112;-62
2024/01/27 05:42:19;;;;;;;9.60;9.20;;;;;;;;;;5034005;28;20044;-61
2024/01/27 05:44:45;;;;;;;10.15;9.65;;;;;;;;;;5032528;28;20435;-62
2024/01/27 05:47:10;;;;;;;9.75;9.35;;;;;;;;;;5028879;28;20026;-62
2024/01/27 05:49:36;;;;;;;9.88;9.38;;;;;;;;;;5024869;28;20009;-61
2024/01/27 05:52:01;;;;;;;10.18;9.68;;;;;;;;;;5032515;28;20045;-62
2024/01/27 05:54:26;;;;;;;9.50;9.10;;;;;;;;;;5028434;28;20014;-63
2024/01/27 05:56:52;;;;;;;9.60;9.20;;;;;;;;;;5017885;28;20087;-61
2024/01/27 05:59:17;;;;;;;9.68;9.27;;;;;;;;;;5042690;28;20041;-63
2024/01/27 06:01:44;;;;;;;10.40;9.90;;;;;;;;;;5046636;28;20029;-60
2024/01/27 06:04:09;;;;;;;10.88;10.27;;;;;;;;;;5030116;28;20023;-63
2024/01/27 06:06:38;;;;;;;9.70;9.30;;;;;;;;;;5029280;28;20104;-63
2024/01/27 06:09:03;;;;;;;10.20;9.70;;;;;;;;;;5027748;28;20061;-62
2024/01/27 06:11:29;;;;;;;9.90;9.40;;;;;;;;;;5031522;28;20515;-62
2024/01/27 06:13:55;;;;;;;11.10;10.50;;;;;;;;;;5038448;28;20036;-62
2024/01/27 06:16:20;;;;;;;9.93;9.50;;;;;;;;;;5031328;28;20517;-61
2024/01/27 06:18:45;;;;;;;9.70;9.30;;;;;;;;;;5031252;28;20025;-61
2024/01/27 06:21:11;;;;;;;9.52;9.13;;;;;;;;;;5025434;28;20036;-61
2024/01/27 06:23:36;;;;;;;9.50;9.10;;;;;;;;;;5027704;28;20026;-60
2024/01/27 06:26:06;;;;;;;9.80;9.30;;;;;;;;;;5030419;28;20036;-60
2024/01/27 06:28:31;;;;;;;10.02;9.52;;;;;;;;;;5024772;28;20033;-61
2024/01/27 06:30:57;;;;;;;9.88;9.38;;;;;;;;;;5028781;28;20017;-62
2024/01/27 06:33:23;;;;;;;9.82;9.32;;;;;;;;;;5029029;28;20411;-62
2024/01/27 06:35:48;;;;;;;10.07;9.57;;;;;;;;;;5022028;28;20030;-61
2024/01/27 06:38:14;;;;;;;10.10;9.60;;;;;;;;;;5027250;28;20681;-62
2024/01/27 06:40:39;;;;;;;10.55;10.05;;;;;;;;;;5024731;28;20063;-61
2024/01/27 06:43:05;;;;;;;9.77;9.32;;;;;;;;;;5026671;28;20026;-61
2024/01/27 06:45:30;;;;;;;9.40;9.00;;;;;;;;;;5040032;28;20415;-61
2024/01/27 06:47:56;;;;;;;9.70;9.20;;;;;;;;;;5031287;28;20043;-63
2024/01/27 06:50:22;;;;;;;9.77;9.30;;;;;;;;;;5029245;28;20018;-62
2024/01/27 06:52:48;;;;;;;9.75;9.25;;;;;;;;;;5028596;28;20092;-61
2024/01/27 06:55:13;;;;;;;9.95;9.45;;;;;;;;;;5028130;28;20049;-62
2024/01/27 06:57:40;;;;;;;10.48;9.98;;;;;;;;;;5029350;28;20033;-61
2024/01/27 07:00:06;;;;;;;11.50;10.90;;;;;;;;;;5021681;28;20032;-63
2024/01/27 07:02:31;;;;;;;10.80;10.20;;;;;;;;;;5023815;28;20022;-61
2024/01/27 07:04:57;;;;;;;11.20;10.60;;;;;;;;;;5024302;28;20514;-62
2024/01/27 07:07:26;;;;;;;10.38;9.88;;;;;;;;;;5026632;28;20037;-62
2024/01/27 07:09:52;;;;;;;10.20;9.70;;;;;;;;;;5025054;28;20021;-61
2024/01/27 07:12:17;;;;;;;10.00;9.50;;;;;;;;;;5028664;28;20400;-61
2024/01/27 07:14:42;;;;;;;10.40;9.90;;;;;;;;;;5031027;28;20085;-61
2024/01/27 07:17:08;;;;;;;10.77;10.27;;;;;;;;;;5027725;28;20049;-61
2024/01/27 07:19:33;;;;;;;10.93;10.32;;;;;;;;;;5023743;28;20026;-61
2024/01/27 07:21:59;;;;;;;11.07;10.48;;;;;;;;;;5024202;28;20049;-63
2024/01/27 07:24:25;;;;;;;10.30;9.80;;;;;;;;;;5025527;28;20017;-62
2024/01/27 07:26:50;;;;;;;10.30;9.80;;;;;;;;;;5021259;28;20014;-61
2024/01/27 07:29:16;;;;;;;10.68;10.18;;;;;;;;;;5023945;28;20020;-61
2024/01/27 07:31:41;;;;;;;10.40;9.90;;;;;;;;;;5016618;28;20033;-62
2024/01/27 07:34:07;;;;;;;10.63;10.13;;;;;;;;;;5020715;28;20034;-62
2024/01/27 07:36:32;;;;;;;9.90;9.40;;;;;;;;;;5025457;28;20033;-62
2024/01/27 07:38:58;;;;;;;10.05;9.55;;;;;;;;;;5024815;28;20029;-62
2024/01/27 07:41:23;;;;;;;10.65;10.15;;;;;;;;;;5025702;28;20098;-61
2024/01/27 07:43:48;;;;;;;10.98;10.38;;;;;;;;;;5018863;28;20103;-62
2024/01/27 07:46:14;;;;;;;10.23;9.73;;;;;;;;;;5017700;28;20151;-65
2024/01/27 07:48:39;;;;;;;11.70;11.10;;;;;;;;;;5026619;28;20142;-63
2024/01/27 07:51:05;;;;;;;11.23;10.63;;;;;;;;;;5019208;28;20021;-65
2024/01/27 07:53:30;;;;;;;12.20;11.50;;;;;;;;;;5028180;28;20602;-64
2024/01/27 07:55:56;;;;;;;14.40;13.50;;;;;;;;;;5016866;28;20087;-67
2024/01/27 07:58:21;;;;;;;10.57;10.07;;;;;;;;;;5021496;28;20499;-64
2024/01/27 08:00:47;;;;;;;11.50;10.90;;;;;;;;;;5029181;28;20108;-64
2024/01/27 08:03:12;;;;;;;12.48;11.77;;;;;;;;;;5025899;28;20053;-63
2024/01/27 08:05:37;;;;;;;11.07;10.48;;;;;;;;;;5026855;28;20111;-64
2024/01/27 08:08:03;;;;;;;10.40;9.90;;;;;;;;;;5027892;28;20021;-65
2024/01/27 08:10:29;;;;;;;11.35;10.75;;;;;;;;;;5025471;28;20032;-65
2024/01/27 08:12:54;;;;;;;11.70;11.10;;;;;;;;;;5027083;28;20025;-62
2024/01/27 08:15:19;;;;;;;11.57;10.98;;;;;;;;;;5025656;28;20404;-64
2024/01/27 08:17:45;;;;;;;11.45;10.85;;;;;;;;;;5025791;28;20033;-62
2024/01/27 08:20:10;;;;;;;10.63;10.13;;;;;;;;;;5019629;28;20072;-63
2024/01/27 08:22:36;;;;;;;10.15;9.65;;;;;;;;;;5025721;28;20052;-62
2024/01/27 08:25:01;;;;;;;10.20;9.70;;;;;;;;;;5022362;28;20068;-62
2024/01/27 08:27:26;;;;;;;10.15;9.65;;;;;;;;;;5026586;28;20096;-64
2024/01/27 08:29:52;;;;;;;10.98;10.38;;;;;;;;;;5024459;28;20029;-62
2024/01/27 08:32:18;;;;;;;10.45;9.95;;;;;;;;;;5025342;28;20112;-65
2024/01/27 08:34:43;;;;;;;10.60;10.10;;;;;;;;;;5022030;28;20071;-64
2024/01/27 08:37:18;;;;;;;10.15;9.65;;;;;;;;;;5023509;28;20053;-62
2024/01/27 08:39:43;;;;;;;9.40;9.00;;;;;;;;;;5028297;28;20028;-62
2024/01/27 08:42:09;;;;;;;10.57;10.07;;;;;;;;;;5031506;28;20037;-62
2024/01/27 08:44:34;;;;;;;10.93;10.32;;;;;;;;;;5031178;28;20017;-62
2024/01/27 08:47:00;;;;;;;10.43;9.93;;;;;;;;;;5033209;28;20403;-62
2024/01/27 08:49:25;;;;;;;10.52;10.02;;;;;;;;;;5029842;28;20072;-63
2024/01/27 08:51:50;;;;;;;10.00;9.50;;;;;;;;;;5029359;28;20136;-63
2024/01/27 08:54:16;;;;;;;10.68;10.18;;;;;;;;;;5030873;28;20087;-64
2024/01/27 08:56:41;;;;;;;10.73;10.23;;;;;;;;;;5028839;28;20033;-63
2024/01/27 08:59:06;;;;;;;10.07;9.57;;;;;;;;;;5023858;28;20021;-64
2024/01/27 09:01:32;;;;;;;10.55;10.05;;;;;;;;;;5025170;28;20029;-64
2024/01/27 09:03:57;;;;;;;10.20;9.70;;;;;;;;;;5031175;28;20514;-63
2024/01/27 09:06:23;;;;;;;10.23;9.73;;;;;;;;;;5028725;28;20029;-64
2024/01/27 09:08:48;;;;;;;9.90;9.40;;;;;;;;;;5028261;28;20112;-62
2024/01/27 09:11:14;;;;;;;11.07;10.48;;;;;;;;;;5026576;28;20028;-64
2024/01/27 09:13:39;;;;;;;10.43;9.93;;;;;;;;;;5028934;28;20024;-64
2024/01/27 09:16:04;;;;;;;10.20;9.70;;;;;;;;;;5026699;28;20102;-64
2024/01/27 09:18:30;;;;;;;10.30;9.80;;;;;;;;;;5024810;28;20123;-65
2024/01/27 09:20:55;;;;;;;10.07;9.57;;;;;;;;;;5027206;28;20499;-64
2024/01/27 09:23:21;;;;;;;10.40;9.90;;;;;;;;;;5031903;28;20108;-65
2024/01/27 09:25:46;;;;;;;10.05;9.55;;;;;;;;;;5031566;28;20431;-64
2024/01/27 09:28:12;;;;;;;9.85;9.40;;;;;;;;;;5032664;28;20021;-65
2024/01/27 09:30:37;;;;;;;10.05;9.55;;;;;;;;;;5021885;28;20042;-63
2024/01/27 09:33:03;;;;;;;10.43;9.93;;;;;;;;;;5027313;28;20021;-63
2024/01/27 09:35:28;;;;;;;10.50;10.00;;;;;;;;;;5026860;28;20025;-63
2024/01/27 09:37:53;;;;;;;10.55;10.05;;;;;;;;;;5030818;28;20029;-64
2024/01/27 09:40:20;;;;;;;9.95;9.45;;;;;;;;;;5024975;28;21067;-64
2024/01/27 09:42:56;;;;;;;10.40;9.90;;;;;;;;;;5024190;28;20476;-64
2024/01/27 09:45:23;;;;;;;10.60;10.10;;;;;;;;;;5022918;28;20099;-64
2024/01/27 09:47:49;;;;;;;10.55;10.05;;;;;;;;;;5022511;28;20526;-65
2024/01/27 09:50:14;;;;;;;10.10;9.60;;;;;;;;;;5032128;28;20018;-65
2024/01/27 09:52:40;;;;;;;10.10;9.60;;;;;;;;;;5025700;28;20100;-63
2024/01/27 09:55:06;;;;;;;10.18;9.68;;;;;;;;;;5022343;28;20173;-64
2024/01/27 09:57:31;;;;;;;10.10;9.60;;;;;;;;;;5018481;28;20519;-63
2024/01/27 09:59:57;;;;;;;11.75;11.15;;;;;;;;;;5020481;28;23809;-65
2024/01/27 10:02:24;;;;;;;10.30;9.80;;;;;;;;;;5027388;28;20097;-62
2024/01/27 10:04:50;;;;;;;10.32;9.82;;;;;;;;;;5022121;28;20100;-62
2024/01/27 10:07:15;;;;;;;10.23;9.73;;;;;;;;;;5021309;28;20100;-64
2024/01/27 10:09:42;;;;;;;10.88;10.38;;;;;;;;;;5027835;28;20022;-62
2024/01/27 10:12:09;;;;;;;10.77;10.27;;;;;;;;;;5026192;28;20049;-62
2024/01/27 10:14:39;;;;;;;10.65;10.15;;;;;;;;;;5024230;28;20100;-64
2024/01/27 10:17:04;;;;;;;10.40;9.90;;;;;;;;;;5026569;28;20024;-64
2024/01/27 10:19:30;;;;;;;9.98;9.50;;;;;;;;;;5026599;28;20037;-65
2024/01/27 10:22:04;;;;;;;10.43;9.93;;;;;;;;;;5027866;28;20052;-65
2024/01/27 10:24:33;;;;;;;11.25;10.65;;;;;;;;;;5029789;28;20021;-64
2024/01/27 10:27:00;;;;;;;10.98;10.48;;;;;;;;;;5023403;28;20025;-63
2024/01/27 10:29:25;;;;;;;10.23;9.73;;;;;;;;;;5025679;28;20018;-64
2024/01/27 10:31:51;;;;;;;10.77;10.27;;;;;;;;;;5025161;28;20022;-65
2024/01/27 10:34:19;;;;;;;10.60;10.10;;;;;;;;;;5030068;28;20022;-65
2024/01/27 10:36:45;;;;;;;10.60;10.10;;;;;;;;;;5027240;28;20026;-63
2024/01/27 10:39:36;;;;;;;10.15;9.65;;;;;;;;;;5026336;28;20539;-62
2024/01/27 10:42:03;;;;;;;10.25;9.75;;;;;;;;;;5024256;28;20037;-65
2024/01/27 10:44:29;;;;;;;10.48;9.98;;;;;;;;;;5029588;28;20014;-64
2024/01/27 10:46:56;;;;;;;11.20;10.60;;;;;;;;;;5023458;28;20063;-63
2024/01/27 10:49:22;;;;;;;10.35;9.85;;;;;;;;;;5025317;28;20496;-64
2024/01/27 10:51:53;;;;;;;10.50;10.00;;;;;;;;;;5028579;28;20071;-63
2024/01/27 10:54:23;;;;;;;10.30;9.80;;;;;;;;;;5023914;28;20295;-64
2024/01/27 10:56:48;;;;;;;10.88;10.38;;;;;;;;;;5028279;28;20483;-66
2024/01/27 10:59:14;;;;;;;11.43;10.82;;;;;;;;;;5019308;28;20025;-63
2024/01/27 11:01:41;;;;;;;10.45;9.95;;;;;;;;;;5025937;28;20056;-65
2024/01/27 11:04:07;;;;;;;11.25;10.65;;;;;;;;;;5028758;28;20021;-63
2024/01/27 11:06:34;;;;;;;10.18;9.68;;;;;;;;;;5026522;28;20495;-65
2024/01/27 11:09:03;;;;;;;11.30;10.70;;;;;;;;;;5018335;28;20026;-64
2024/01/27 11:11:28;;;;;;;10.63;10.13;;;;;;;;;;5039678;28;20031;-65
2024/01/27 11:13:55;;;;;;;10.23;9.73;;;;;;;;;;5025513;28;20046;-64
2024/01/27 11:16:23;;;;;;;10.43;9.93;;;;;;;;;;5027500;28;20075;-65
2024/01/27 11:18:48;;;;;;;10.35;9.85;;;;;;;;;;5029100;28;20491;-63
2024/01/27 11:21:17;;;;;;;10.55;10.05;;;;;;;;;;5027486;28;20030;-64
2024/01/27 11:23:42;;;;;;;10.70;10.20;;;;;;;;;;5025585;28;20032;-64
2024/01/27 11:26:09;;;;;;;9.80;9.40;;;;;;;;;;5045713;28;20021;-63
2024/01/27 11:28:35;;;;;;;10.13;9.63;;;;;;;;;;5025024;28;20128;-63
2024/01/27 11:31:04;;;;;;;10.50;10.00;;;;;;;;;;5023218;28;20041;-64
2024/01/27 11:33:29;;;;;;;10.70;10.20;;;;;;;;;;5024350;28;20013;-64
2024/01/27 11:36:04;;;;;;;11.23;10.63;;;;;;;;;;5019071;28;20435;-63
2024/01/27 11:38:30;;;;;;;10.18;9.68;;;;;;;;;;5024554;28;20045;-63
2024/01/27 11:40:56;;;;;;;10.15;9.65;;;;;;;;;;5025381;28;20068;-63
2024/01/27 11:43:22;;;;;;;9.77;9.35;;;;;;;;;;5027061;28;20036;-62
2024/01/27 11:45:57;;;;;;;10.50;10.00;;;;;;;;;;5025003;28;20026;-64
2024/01/27 11:48:23;;;;;;;10.45;9.95;;;;;;;;;;5031394;28;20017;-63
2024/01/27 11:50:48;;;;;;;11.05;10.48;;;;;;;;;;5020304;28;20542;-63
2024/01/27 11:53:14;;;;;;;10.48;9.98;;;;;;;;;;5016906;28;20057;-63
2024/01/27 11:55:39;;;;;;;11.55;10.95;;;;;;;;;;5025231;28;20018;-63
2024/01/27 11:58:05;;;;;;;10.35;9.85;;;;;;;;;;5018210;28;20030;-63
2024/01/27 12:00:30;;;;;;;10.32;9.82;;;;;;;;;;5028946;28;20109;-63
2024/01/27 12:02:55;;;;;;;10.60;10.10;;;;;;;;;;5031123;28;20018;-63
2024/01/27 12:05:21;;;;;;;10.10;9.60;;;;;;;;;;5029205;28;20476;-63
2024/01/27 12:07:46;;;;;;;10.32;9.82;;;;;;;;;;5034398;28;20017;-63
2024/01/27 12:10:12;;;;;;;11.73;11.13;;;;;;;;;;5035398;28;20024;-62
2024/01/27 12:12:37;;;;;;;10.80;10.30;;;;;;;;;;5036905;28;20026;-62
2024/01/27 12:15:02;;;;;;;10.45;9.95;;;;;;;;;;5031414;28;20029;-63
2024/01/27 12:17:28;;;;;;;10.45;9.95;;;;;;;;;;5027540;28;20391;-63
2024/01/27 12:19:53;;;;;;;10.60;10.10;;;;;;;;;;5031283;28;20162;-63
2024/01/27 12:22:28;;;;;;;10.60;10.10;;;;;;;;;;5027411;28;20435;-63
2024/01/27 12:24:54;;;;;;;10.40;9.90;;;;;;;;;;5030557;28;20093;-63
2024/01/27 12:27:21;;;;;;;10.10;9.60;;;;;;;;;;5021553;28;20471;-63
2024/01/27 12:29:48;;;;;;;10.15;9.65;;;;;;;;;;5029553;28;20031;-62
2024/01/27 12:32:14;;;;;;;10.30;9.80;;;;;;;;;;5021086;28;20029;-63
2024/01/27 12:34:42;;;;;;;10.27;9.77;;;;;;;;;;5022706;28;20463;-63
2024/01/27 12:37:08;;;;;;;10.70;10.20;;;;;;;;;;5030227;28;20020;-64
2024/01/27 12:39:34;;;;;;;10.63;10.13;;;;;;;;;;5030864;28;20053;-62
2024/01/27 12:41:59;;;;;;;10.20;9.70;;;;;;;;;;5023442;28;20048;-63
2024/01/27 12:44:24;;;;;;;10.50;10.00;;;;;;;;;;5029488;28;20020;-63
2024/01/27 12:46:50;;;;;;;12.13;11.48;;;;;;;;;;5016767;28;20498;-63
2024/01/27 12:49:15;;;;;;;10.68;10.18;;;;;;;;;;5027496;28;20495;-62
2024/01/27 12:51:41;;;;;;;10.73;10.23;;;;;;;;;;5030934;28;20022;-64
2024/01/27 12:54:06;;;;;;;10.40;9.90;;;;;;;;;;5030470;28;20460;-63
2024/01/27 12:56:33;;;;;;;10.23;9.73;;;;;;;;;;5030776;28;20049;-64
2024/01/27 12:58:58;;;;;;;10.70;10.20;;;;;;;;;;5026225;28;20113;-63
2024/01/27 13:01:24;;;;;;;10.75;10.25;;;;;;;;;;5029433;28;20603;-64
2024/01/27 13:03:50;;;;;;;10.30;9.80;;;;;;;;;;5028146;28;20021;-64
2024/01/27 13:06:15;;;;;;;10.70;10.20;;;;;;;;;;5029776;28;20534;-63
2024/01/27 13:08:41;;;;;;;10.30;9.80;;;;;;;;;;5027755;28;20022;-64
2024/01/27 13:11:06;;;;;;;10.27;9.77;;;;;;;;;;5031182;28;20509;-65
2024/01/27 13:13:32;;;;;;;10.70;10.20;;;;;;;;;;5026314;28;20014;-62
2024/01/27 13:15:57;;;;;;;11.85;11.25;;;;;;;;;;5022692;28;20514;-62
2024/01/27 13:18:22;;;;;;;10.23;9.73;;;;;;;;;;5031281;28;20009;-63
2024/01/27 13:20:48;;;;;;;10.40;9.90;;;;;;;;;;5030877;28;20045;-63
2024/01/27 13:23:13;;;;;;;10.32;9.82;;;;;;;;;;5027504;28;20024;-63
2024/01/27 13:25:38;;;;;;;10.73;10.23;;;;;;;;;;5033213;28;20025;-63
2024/01/27 13:28:07;;;;;;;10.32;9.82;;;;;;;;;;5032096;28;20048;-63
2024/01/27 13:30:32;;;;;;;9.90;9.50;;;;;;;;;;5034172;28;20010;-65
2024/01/27 13:32:58;;;;;;;10.27;9.77;;;;;;;;;;5029197;28;20107;-63
2024/01/27 13:35:23;;;;;;;10.20;9.70;;;;;;;;;;5033726;28;20044;-62
2024/01/27 13:37:48;;;;;;;10.35;9.85;;;;;;;;;;5038427;28;20541;-63
2024/01/27 13:40:14;;;;;;;10.30;9.80;;;;;;;;;;5032970;28;20112;-63
2024/01/27 13:42:39;;;;;;;12.73;12.02;;;;;;;;;;5034623;28;20024;-63
2024/01/27 13:45:05;;;;;;;10.40;9.90;;;;;;;;;;5032255;28;20047;-64
2024/01/27 13:47:30;;;;;;;10.23;9.73;;;;;;;;;;5031124;28;20056;-63
2024/01/27 13:49:56;;;;;;;10.32;9.82;;;;;;;;;;5028676;28;20155;-63
2024/01/27 13:52:21;;;;;;;10.27;9.77;;;;;;;;;;5032156;28;20710;-64
2024/01/27 13:54:46;;;;;;;10.30;9.80;;;;;;;;;;5024017;28;20021;-63
2024/01/27 13:57:12;;;;;;;9.90;9.50;;;;;;;;;;5029723;28;20022;-63
2024/01/27 13:59:37;;;;;;;10.27;9.77;;;;;;;;;;5027572;28;20038;-63
2024/01/27 14:02:03;;;;;;;10.73;10.23;;;;;;;;;;5030888;28;20438;-63
2024/01/27 14:04:28;;;;;;;11.85;11.25;;;;;;;;;;5022132;28;20048;-65
2024/01/27 14:06:54;;;;;;;10.45;9.95;;;;;;;;;;5024540;28;20029;-64
2024/01/27 14:09:23;;;;;;;9.70;9.30;;;;;;;;;;5028610;28;20025;-62
2024/01/27 14:11:49;;;;;;;10.55;10.05;;;;;;;;;;5028645;28;20036;-65
2024/01/27 14:14:14;;;;;;;11.07;10.48;;;;;;;;;;5021166;28;20415;-64
2024/01/27 14:16:41;;;;;;;11.07;10.50;;;;;;;;;;5029273;28;20105;-63
2024/01/27 14:19:07;;;;;;;11.52;10.93;;;;;;;;;;5030159;28;20036;-63
2024/01/27 14:21:33;;;;;;;10.70;10.20;;;;;;;;;;5021661;28;20060;-61